createdAt,value
2023-11-30T00:01:24.743Z,9.10
2023-11-30T00:03:51.605Z,7.70
2023-11-30T00:06:18.387Z,8.02
2023-11-30T00:08:45.093Z,7.78
2023-11-30T00:11:11.788Z,8.70
2023-11-30T00:13:38.519Z,7.55
2023-11-30T00:16:05.715Z,9.23
2023-11-30T00:18:32.522Z,9.65
2023-11-30T00:20:59.350Z,6.85
2023-11-30T00:23:26.039Z,7.70
2023-11-30T00:25:52.738Z,7.90
2023-11-30T00:28:19.549Z,7.78
2023-11-30T00:30:46.243Z,8.80
2023-11-30T00:33:13.038Z,8.88
2023-11-30T00:35:39.887Z,8.55
2023-11-30T00:38:06.634Z,8.70
2023-11-30T00:40:33.317Z,9.60
2023-11-30T00:43:00.257Z,10.15
2023-11-30T00:45:27.257Z,9.13
2023-11-30T00:47:54.967Z,8.93
2023-11-30T00:50:21.708Z,8.10
2023-11-30T00:52:48.448Z,8.85
2023-11-30T00:55:15.298Z,9.35
2023-11-30T00:57:42.085Z,9.68
2023-11-30T01:00:09.158Z,9.95
2023-11-30T01:02:36.301Z,9.85
2023-11-30T01:05:03.131Z,11.43
2023-11-30T01:07:29.814Z,10.35
2023-11-30T01:09:56.520Z,11.07
2023-11-30T01:12:23.380Z,10.90
2023-11-30T01:14:50.193Z,12.52
2023-11-30T01:17:16.914Z,13.07
2023-11-30T01:19:43.653Z,11.95
2023-11-30T01:22:10.439Z,12.25
2023-11-30T01:24:37.267Z,13.90
2023-11-30T01:27:04.319Z,12.82
2023-11-30T01:29:31.154Z,14.60
2023-11-30T01:31:57.839Z,14.05
2023-11-30T01:34:24.861Z,13.80
2023-11-30T01:36:51.632Z,14.65
2023-11-30T01:39:18.467Z,14.50
2023-11-30T01:41:45.233Z,15.18
2023-11-30T01:44:11.959Z,15.75
2023-11-30T01:46:38.904Z,16.13
2023-11-30T01:49:07.659Z,14.75
2023-11-30T01:51:36.468Z,16.20
2023-11-30T01:54:06.975Z,16.30
2023-11-30T01:56:35.546Z,17.00
2023-11-30T01:59:03.776Z,15.35
2023-11-30T02:01:31.537Z,19.17
2023-11-30T02:04:03.113Z,15.68
2023-11-30T02:06:29.868Z,17.52
2023-11-30T02:08:56.597Z,16.88
2023-11-30T02:11:23.358Z,17.67
2023-11-30T02:13:51.036Z,15.70
2023-11-30T02:16:17.754Z,14.27
2023-11-30T02:18:44.761Z,16.23
2023-11-30T02:21:11.593Z,14.45
2023-11-30T02:23:38.264Z,17.92
2023-11-30T02:26:05.202Z,17.52
2023-11-30T02:28:31.870Z,17.05
2023-11-30T02:30:58.572Z,18.73
2023-11-30T02:33:25.411Z,18.33
2023-11-30T02:35:52.166Z,18.30
2023-11-30T02:38:18.874Z,17.95
2023-11-30T02:40:45.628Z,16.83
2023-11-30T02:43:12.359Z,17.17
2023-11-30T02:45:39.184Z,18.17
2023-11-30T02:48:06.184Z,21.23
2023-11-30T02:50:33.054Z,18.30
2023-11-30T02:53:00.895Z,19.25
2023-11-30T02:55:28.013Z,18.45
2023-11-30T02:57:57.563Z,18.50
2023-11-30T03:00:24.741Z,20.23
2023-11-30T03:02:51.491Z,19.20
2023-11-30T03:05:18.201Z,19.60
2023-11-30T03:07:44.901Z,19.27
2023-11-30T03:10:11.699Z,18.45
2023-11-30T03:12:38.440Z,20.05
2023-11-30T03:15:05.647Z,25.00
2023-11-30T03:17:32.553Z,19.85
2023-11-30T03:19:59.243Z,19.77
2023-11-30T03:22:25.946Z,20.50
2023-11-30T03:24:52.753Z,18.67
2023-11-30T03:27:19.487Z,19.05
2023-11-30T03:29:46.416Z,18.95
2023-11-30T03:32:13.227Z,18.42
2023-11-30T03:34:40.052Z,19.02
2023-11-30T03:37:06.842Z,22.23
2023-11-30T03:39:33.693Z,22.08
2023-11-30T03:42:00.404Z,23.83
2023-11-30T03:44:27.135Z,19.17
2023-11-30T03:46:54.777Z,19.70
2023-11-30T03:49:21.518Z,24.17
2023-11-30T03:51:48.243Z,21.30
2023-11-30T03:54:14.989Z,20.52
2023-11-30T03:56:41.732Z,20.40
2023-11-30T03:59:11.235Z,22.23
2023-11-30T04:01:38.021Z,20.73
2023-11-30T04:04:05.809Z,20.95
2023-11-30T04:06:32.542Z,22.73
2023-11-30T04:08:59.458Z,21.00
2023-11-30T04:11:26.168Z,22.58
2023-11-30T04:13:52.880Z,22.33
2023-11-30T04:16:19.609Z,21.08
2023-11-30T04:18:46.428Z,20.58
2023-11-30T04:21:13.303Z,20.60
2023-11-30T04:23:40.052Z,19.77
2023-11-30T04:26:07.144Z,20.50
2023-11-30T04:28:33.835Z,22.40
2023-11-30T04:31:00.559Z,21.27
2023-11-30T04:33:27.278Z,19.88
2023-11-30T04:35:54.751Z,23.60
2023-11-30T04:38:21.442Z,20.17
2023-11-30T04:40:48.193Z,21.33
2023-11-30T04:43:14.877Z,19.83
2023-11-30T04:45:41.660Z,18.42
2023-11-30T04:48:08.513Z,21.02
2023-11-30T04:50:35.226Z,18.88
2023-11-30T04:53:02.026Z,20.83
2023-11-30T04:55:28.827Z,21.42
2023-11-30T04:57:55.524Z,23.95
2023-11-30T05:00:22.385Z,18.80
2023-11-30T05:02:53.657Z,23.02
2023-11-30T05:05:20.797Z,21.90
2023-11-30T05:07:47.537Z,23.17
2023-11-30T05:10:14.294Z,23.85
2023-11-30T05:12:41.128Z,27.58
2023-11-30T05:15:08.217Z,31.00
2023-11-30T05:17:35.032Z,22.90
2023-11-30T05:20:01.746Z,24.85
2023-11-30T05:22:28.459Z,23.92
2023-11-30T05:24:55.169Z,27.63
2023-11-30T05:27:21.877Z,25.13
2023-11-30T05:29:48.641Z,25.40
2023-11-30T05:32:15.337Z,26.30
2023-11-30T05:34:42.026Z,25.38
2023-11-30T05:37:09.378Z,26.30
2023-11-30T05:39:36.088Z,31.75
2023-11-30T05:42:02.805Z,30.80
2023-11-30T05:44:29.521Z,31.83
2023-11-30T05:46:56.225Z,29.77
2023-11-30T05:49:22.958Z,30.30
2023-11-30T05:51:49.719Z,30.17
2023-11-30T05:54:16.622Z,34.30
2023-11-30T05:56:43.361Z,31.77
2023-11-30T05:59:10.305Z,28.80
2023-11-30T06:01:37.017Z,36.13
2023-11-30T06:04:03.769Z,32.22
2023-11-30T06:06:30.624Z,34.35
2023-11-30T06:08:57.382Z,30.25
2023-11-30T06:11:24.732Z,29.75
2023-11-30T06:13:51.469Z,28.00
2023-11-30T06:16:18.164Z,33.70
2023-11-30T06:18:44.877Z,31.48
2023-11-30T06:21:11.652Z,32.17
2023-11-30T06:23:38.551Z,38.90
2023-11-30T06:26:05.884Z,29.85
2023-11-30T06:28:32.601Z,31.55
2023-11-30T06:30:59.347Z,29.80
2023-11-30T06:33:26.111Z,32.95
2023-11-30T06:35:53.231Z,30.42
2023-11-30T06:38:19.919Z,32.65
2023-11-30T06:40:46.824Z,31.88
2023-11-30T06:43:13.601Z,36.20
2023-11-30T06:45:40.357Z,31.88
2023-11-30T06:48:07.130Z,29.40
2023-11-30T06:50:33.902Z,29.55
2023-11-30T06:53:00.608Z,42.72
2023-11-30T06:55:29.932Z,37.60
2023-11-30T06:57:56.746Z,35.00
2023-11-30T07:00:23.475Z,31.75
2023-11-30T07:02:50.234Z,32.17
2023-11-30T07:05:16.995Z,38.45
2023-11-30T07:07:43.722Z,38.85
2023-11-30T07:10:10.452Z,32.13
2023-11-30T07:12:37.230Z,31.05
2023-11-30T07:15:04.186Z,39.08
2023-11-30T07:17:30.873Z,36.75
2023-11-30T07:19:57.599Z,38.70
2023-11-30T07:22:24.811Z,32.08
2023-11-30T07:24:52.324Z,39.33
2023-11-30T07:27:19.805Z,37.70
2023-11-30T07:29:46.934Z,32.95
2023-11-30T07:32:16.785Z,37.65
2023-11-30T07:34:47.392Z,33.22
2023-11-30T07:37:18.016Z,34.80
2023-11-30T07:39:45.088Z,33.00
2023-11-30T07:42:14.235Z,33.78
2023-11-30T07:44:41.932Z,33.20
2023-11-30T07:47:08.666Z,39.75
2023-11-30T07:49:35.432Z,35.60
2023-11-30T07:52:02.133Z,34.60
2023-11-30T07:54:28.895Z,36.13
2023-11-30T07:56:55.607Z,35.70
2023-11-30T07:59:22.296Z,34.42
2023-11-30T08:01:49.239Z,33.72
2023-11-30T08:04:16.223Z,34.55
2023-11-30T08:06:43.817Z,33.67
2023-11-30T08:09:10.745Z,36.78
2023-11-30T08:11:37.631Z,33.58
2023-11-30T08:14:04.346Z,43.42
2023-11-30T08:16:31.367Z,34.42
2023-11-30T08:18:58.243Z,31.58
2023-11-30T08:21:25.146Z,33.65
2023-11-30T08:23:51.858Z,39.33
2023-11-30T08:26:18.623Z,38.85
2023-11-30T08:28:45.336Z,38.22
2023-11-30T08:31:12.450Z,49.13
2023-11-30T08:33:39.545Z,42.72
2023-11-30T08:36:06.901Z,36.75
2023-11-30T08:38:34.419Z,34.60
2023-11-30T08:41:01.262Z,37.80
2023-11-30T08:43:27.968Z,61.20
2023-11-30T08:45:54.841Z,38.03
2023-11-30T08:48:22.083Z,39.42
2023-11-30T08:50:49.153Z,35.72
2023-11-30T08:53:15.965Z,37.58
2023-11-30T08:55:43.651Z,33.55
2023-11-30T08:58:10.354Z,35.22
2023-11-30T09:00:37.174Z,32.45
2023-11-30T09:03:03.990Z,29.67
2023-11-30T09:05:33.336Z,30.88
2023-11-30T09:08:00.130Z,31.77
2023-11-30T09:10:26.979Z,32.20
2023-11-30T09:12:54.001Z,33.38
2023-11-30T09:15:21.941Z,29.30
2023-11-30T09:17:49.938Z,30.13
2023-11-30T09:20:17.136Z,31.40
2023-11-30T09:22:43.876Z,27.67
2023-11-30T09:25:10.707Z,27.92
2023-11-30T09:27:37.577Z,32.13
2023-11-30T09:30:05.413Z,25.52
2023-11-30T09:32:34.721Z,27.98
2023-11-30T09:35:01.564Z,26.25
2023-11-30T09:37:28.385Z,26.95
2023-11-30T09:39:55.170Z,24.75
2023-11-30T09:42:22.162Z,22.38
2023-11-30T09:44:49.127Z,16.50
2023-11-30T09:47:15.944Z,21.17
2023-11-30T09:49:42.829Z,16.88
2023-11-30T09:52:09.887Z,18.88
2023-11-30T09:54:36.833Z,19.23
2023-11-30T09:57:03.827Z,25.40
2023-11-30T09:59:30.623Z,23.95
2023-11-30T10:02:03.790Z,22.25
2023-11-30T10:04:32.566Z,20.13
2023-11-30T10:06:59.608Z,24.65
2023-11-30T10:09:26.472Z,21.83
2023-11-30T10:11:53.311Z,21.92
2023-11-30T10:14:20.271Z,21.63
2023-11-30T10:16:47.299Z,30.48
2023-11-30T10:19:14.400Z,30.20
2023-11-30T10:21:41.331Z,37.28
2023-11-30T10:24:08.642Z,34.95
2023-11-30T10:26:37.165Z,31.27
2023-11-30T10:29:07.208Z,41.40
2023-11-30T10:31:39.823Z,41.42
2023-11-30T10:34:11.311Z,37.33
2023-11-30T10:36:43.398Z,35.08
2023-11-30T10:39:12.919Z,35.63
2023-11-30T10:42:02.831Z,37.22
2023-11-30T10:44:32.221Z,34.72
2023-11-30T10:47:00.405Z,34.22
2023-11-30T10:49:30.528Z,39.25
2023-11-30T10:52:03.186Z,42.28
2023-11-30T10:54:56.821Z,42.33
2023-11-30T10:57:23.711Z,36.10
2023-11-30T10:59:57.506Z,31.15
2023-11-30T11:02:25.086Z,41.90
2023-11-30T11:04:52.961Z,33.15
2023-11-30T11:07:20.486Z,29.38
2023-11-30T11:10:03.563Z,32.40
2023-11-30T11:12:35.202Z,32.50
2023-11-30T11:15:22.711Z,15.93
2023-11-30T11:17:52.473Z,17.48
2023-11-30T11:20:33.833Z,14.73
2023-11-30T11:23:03.844Z,18.35
2023-11-30T11:25:43.879Z,13.18
2023-11-30T11:28:10.951Z,14.95
2023-11-30T11:30:43.432Z,22.77
2023-11-30T11:33:10.439Z,19.13
2023-11-30T11:35:37.277Z,17.45
2023-11-30T11:38:04.064Z,17.67
2023-11-30T11:40:30.887Z,17.38
2023-11-30T11:42:57.842Z,18.02
2023-11-30T11:45:24.988Z,21.88
2023-11-30T11:47:52.871Z,19.17
2023-11-30T11:50:19.788Z,18.35
2023-11-30T11:52:46.714Z,23.35
2023-11-30T11:55:14.246Z,22.70
2023-11-30T11:57:42.697Z,22.17
2023-11-30T12:00:12.099Z,24.58
2023-11-30T12:02:38.981Z,18.13
2023-11-30T12:05:07.586Z,16.90
2023-11-30T12:07:34.544Z,18.15
2023-11-30T12:10:01.634Z,17.65
2023-11-30T12:12:35.335Z,16.67
2023-11-30T12:15:02.429Z,18.17
2023-11-30T12:17:29.477Z,21.92
2023-11-30T12:19:56.455Z,21.83
2023-11-30T12:22:24.336Z,19.95
2023-11-30T12:24:51.181Z,21.02
2023-11-30T12:27:18.105Z,19.42
2023-11-30T12:29:44.964Z,19.48
2023-11-30T12:32:11.934Z,17.27
2023-11-30T12:34:38.790Z,20.10
2023-11-30T12:37:08.120Z,20.05
2023-11-30T12:39:55.439Z,20.13
2023-11-30T12:51:55.652Z,18.58
2023-11-30T12:54:24.471Z,19.60
2023-11-30T12:56:51.304Z,19.00
2023-11-30T12:59:18.261Z,15.80
2023-11-30T13:01:45.210Z,20.33
2023-11-30T13:04:12.084Z,26.30
2023-11-30T13:06:38.964Z,22.65
2023-11-30T13:09:05.695Z,20.30
2023-11-30T13:11:32.436Z,16.00
2023-11-30T13:13:59.209Z,19.15
2023-11-30T13:16:25.937Z,18.38
2023-11-30T13:18:52.876Z,27.83
2023-11-30T13:21:19.998Z,19.08
2023-11-30T13:23:46.799Z,18.83
2023-11-30T13:26:13.541Z,22.05
2023-11-30T13:28:47.206Z,21.90
2023-11-30T13:31:16.884Z,22.10
2023-11-30T13:33:44.578Z,22.45
2023-11-30T13:36:11.821Z,21.30
2023-11-30T13:38:39.084Z,19.88
2023-11-30T13:41:09.373Z,20.63
2023-11-30T13:43:36.146Z,24.60
2023-11-30T13:46:03.062Z,23.92
2023-11-30T13:48:29.985Z,23.15
2023-11-30T13:51:00.728Z,20.90
2023-11-30T13:53:29.201Z,23.48
2023-11-30T13:55:56.077Z,22.42
2023-11-30T13:58:23.488Z,22.95
2023-11-30T14:00:50.477Z,19.90
2023-11-30T14:03:17.636Z,21.35
2023-11-30T14:05:45.122Z,28.20
2023-11-30T14:08:12.106Z,23.92
2023-11-30T14:10:39.160Z,23.02
2023-11-30T14:13:06.060Z,25.77
2023-11-30T14:15:33.239Z,25.35
2023-11-30T14:18:00.268Z,37.83
2023-11-30T14:20:27.061Z,23.95
2023-11-30T14:22:54.785Z,23.98
2023-11-30T14:25:21.601Z,28.10
2023-11-30T14:27:48.424Z,21.48
2023-11-30T14:30:15.394Z,27.00
2023-11-30T14:32:44.826Z,24.80
2023-11-30T14:35:11.647Z,24.45
2023-11-30T14:37:38.774Z,22.63
2023-11-30T14:40:06.261Z,22.08
2023-11-30T14:42:33.149Z,26.77
2023-11-30T14:44:59.982Z,22.38
2023-11-30T14:47:26.803Z,22.98
2023-11-30T14:49:54.078Z,26.35
2023-11-30T14:52:20.818Z,28.20
2023-11-30T14:54:47.659Z,26.83
2023-11-30T14:57:14.564Z,25.10
2023-11-30T14:59:41.301Z,22.70
2023-11-30T15:02:08.182Z,30.88
2023-11-30T15:04:36.433Z,22.77
2023-11-30T15:07:03.329Z,27.25
2023-11-30T15:09:30.201Z,30.00
2023-11-30T15:11:56.949Z,26.65
2023-11-30T15:14:23.886Z,28.05
2023-11-30T15:16:50.693Z,34.17
2023-11-30T15:19:17.461Z,32.63
2023-11-30T15:21:44.316Z,33.10
2023-11-30T15:24:11.119Z,33.83
2023-11-30T15:26:37.923Z,34.33
2023-11-30T15:29:04.705Z,41.45
2023-11-30T15:31:31.514Z,37.40
2023-11-30T15:33:58.418Z,35.47
2023-11-30T15:36:25.577Z,39.35
2023-11-30T15:38:52.449Z,36.22
2023-11-30T15:41:19.424Z,33.92
2023-11-30T15:43:46.666Z,35.42
2023-11-30T15:46:15.492Z,38.40
2023-11-30T15:48:42.249Z,41.70
2023-11-30T15:51:09.701Z,40.00
2023-11-30T15:53:37.656Z,44.80
2023-11-30T15:56:04.694Z,42.13
2023-11-30T15:58:31.497Z,42.38
2023-11-30T16:00:58.342Z,41.35
2023-11-30T16:03:25.142Z,39.50
2023-11-30T16:05:51.880Z,40.90
2023-11-30T16:08:18.609Z,35.72
2023-11-30T16:10:46.882Z,41.83
2023-11-30T16:13:13.602Z,36.00
2023-11-30T16:15:40.344Z,37.22
2023-11-30T16:18:07.162Z,35.33
2023-11-30T16:20:33.927Z,29.08
2023-11-30T16:23:01.797Z,34.50
2023-11-30T16:25:28.575Z,35.42
2023-11-30T16:27:55.451Z,33.20
2023-11-30T16:30:22.494Z,40.25
2023-11-30T16:32:49.462Z,38.50
2023-11-30T16:35:16.161Z,40.45
2023-11-30T16:37:42.919Z,44.53
2023-11-30T16:40:10.079Z,31.95
2023-11-30T16:42:36.869Z,30.48
2023-11-30T16:45:04.171Z,30.02
2023-11-30T16:47:30.910Z,31.42
2023-11-30T16:49:57.609Z,34.00
2023-11-30T16:52:24.928Z,30.45
2023-11-30T16:54:51.691Z,30.90
2023-11-30T16:57:18.534Z,28.50
2023-11-30T16:59:45.334Z,34.70
2023-11-30T17:02:12.096Z,28.23
2023-11-30T17:04:39.075Z,30.85
2023-11-30T17:07:05.849Z,27.98
2023-11-30T17:09:32.601Z,29.73
2023-11-30T17:11:59.306Z,31.23
2023-11-30T17:14:26.163Z,32.25
2023-11-30T17:16:53.089Z,35.55
2023-11-30T17:19:34.544Z,32.47
2023-11-30T17:22:18.121Z,38.42
2023-11-30T17:24:49.641Z,43.45
2023-11-30T17:27:16.553Z,35.75
2023-11-30T17:29:43.401Z,36.22
2023-11-30T17:32:11.144Z,34.35
2023-11-30T17:34:38.148Z,32.33
2023-11-30T17:37:05.150Z,35.95
2023-11-30T17:39:31.920Z,38.40
2023-11-30T17:41:58.731Z,35.65
2023-11-30T17:44:25.542Z,29.45
2023-11-30T17:46:52.642Z,33.90
2023-11-30T17:49:19.932Z,32.70
2023-11-30T17:51:46.698Z,29.08
2023-11-30T17:54:13.519Z,29.67
2023-11-30T17:56:40.227Z,30.00
2023-11-30T17:59:06.935Z,29.75
2023-11-30T18:01:33.823Z,28.80
2023-11-30T18:04:00.869Z,23.42
2023-11-30T18:06:27.845Z,26.67
2023-11-30T18:08:54.969Z,24.98
2023-11-30T18:11:22.158Z,25.92
2023-11-30T18:13:49.276Z,22.00
2023-11-30T18:16:16.405Z,25.70
2023-11-30T18:18:43.223Z,25.83
2023-11-30T18:21:10.047Z,26.48
2023-11-30T18:23:36.993Z,27.67
2023-11-30T18:26:03.746Z,30.40
2023-11-30T18:28:30.498Z,27.98
2023-11-30T18:31:04.645Z,30.80
2023-11-30T18:33:38.785Z,33.58
2023-11-30T18:36:06.066Z,31.13
2023-11-30T18:38:40.364Z,36.92
2023-11-30T18:41:14.611Z,28.02
2023-11-30T18:43:41.478Z,28.75
2023-11-30T18:46:08.506Z,32.72
2023-11-30T18:48:35.362Z,37.38
2023-11-30T18:51:02.137Z,30.00
2023-11-30T18:53:28.948Z,32.58
2023-11-30T18:55:55.789Z,34.17
2023-11-30T18:58:22.540Z,29.73
2023-11-30T19:00:49.434Z,33.55
2023-11-30T19:03:16.633Z,36.08
2023-11-30T19:05:43.747Z,32.47
2023-11-30T19:08:10.901Z,34.58
2023-11-30T19:10:37.915Z,34.53
2023-11-30T19:13:04.663Z,29.88
2023-11-30T19:15:31.446Z,41.03
2023-11-30T19:17:58.281Z,32.97
2023-11-30T19:20:25.065Z,34.58
2023-11-30T19:22:51.835Z,33.00
2023-11-30T19:25:18.631Z,34.42
2023-11-30T19:27:45.493Z,34.60
2023-11-30T19:30:12.903Z,35.97
2023-11-30T19:32:39.656Z,30.20
2023-11-30T19:35:06.994Z,36.00
2023-11-30T19:37:33.837Z,38.28
2023-11-30T19:40:01.878Z,33.97
2023-11-30T19:42:29.163Z,35.70
2023-11-30T19:44:55.897Z,36.45
2023-11-30T19:47:22.692Z,34.60
2023-11-30T19:49:49.472Z,35.85
2023-11-30T19:52:16.251Z,34.22
2023-11-30T19:54:43.004Z,36.08
2023-11-30T19:57:09.744Z,32.75
2023-11-30T19:59:36.514Z,36.30
2023-11-30T20:02:03.419Z,31.95
2023-11-30T20:04:30.295Z,32.05
2023-11-30T20:06:57.073Z,34.28
2023-11-30T20:09:24.902Z,32.83
2023-11-30T20:11:51.620Z,34.55
2023-11-30T20:14:18.316Z,35.80
2023-11-30T20:16:45.115Z,30.95
2023-11-30T20:19:11.906Z,38.85
2023-11-30T20:21:38.768Z,29.30
2023-11-30T20:24:05.830Z,34.13
2023-11-30T20:26:32.579Z,39.08
2023-11-30T20:28:59.367Z,34.78
2023-11-30T20:31:26.231Z,43.05
2023-11-30T20:33:53.074Z,36.38
2023-11-30T20:36:19.909Z,33.40
2023-11-30T20:38:48.925Z,36.15
2023-11-30T20:41:17.016Z,34.40
2023-11-30T20:43:43.833Z,35.05
2023-11-30T20:46:10.696Z,34.15
2023-11-30T20:48:37.565Z,35.25
2023-11-30T20:51:04.521Z,28.35
2023-11-30T20:53:31.263Z,35.42
2023-11-30T20:55:57.993Z,30.50
2023-11-30T20:58:24.814Z,36.13
2023-11-30T21:00:51.755Z,34.28
2023-11-30T21:03:18.681Z,33.20
2023-11-30T21:05:46.879Z,35.30
2023-11-30T21:08:13.811Z,35.95
2023-11-30T21:10:40.546Z,33.95
2023-11-30T21:13:07.298Z,33.03
2023-11-30T21:15:34.079Z,39.75
2023-11-30T21:18:00.881Z,33.60
2023-11-30T21:20:27.609Z,34.42
2023-11-30T21:22:54.780Z,34.70
2023-11-30T21:25:21.612Z,36.53
2023-11-30T21:27:48.499Z,39.72
2023-11-30T21:30:15.273Z,37.13
2023-11-30T21:32:42.002Z,34.22
2023-11-30T21:35:09.139Z,40.67
2023-11-30T21:37:36.982Z,33.00
2023-11-30T21:40:04.267Z,36.85
2023-11-30T21:42:31.064Z,39.15
2023-11-30T21:44:57.893Z,33.72
2023-11-30T21:47:24.698Z,37.88
2023-11-30T21:49:51.445Z,35.88
2023-11-30T21:52:18.195Z,40.33
2023-11-30T21:54:44.970Z,43.33
2023-11-30T21:57:11.758Z,42.00
2023-11-30T21:59:38.666Z,41.95
2023-11-30T22:02:06.050Z,46.00
2023-11-30T22:04:33.328Z,42.05
2023-11-30T22:07:00.277Z,39.42
2023-11-30T22:09:27.055Z,39.45
2023-11-30T22:11:54.784Z,35.15
2023-11-30T22:14:21.528Z,39.92
2023-11-30T22:16:48.307Z,34.45
2023-11-30T22:19:15.079Z,38.15
2023-11-30T22:21:41.828Z,39.05
2023-11-30T22:24:08.756Z,33.05
2023-11-30T22:26:35.520Z,36.15
2023-11-30T22:29:03.409Z,33.78
2023-11-30T22:31:30.253Z,32.80
2023-11-30T22:33:57.157Z,34.35
2023-11-30T22:36:24.896Z,43.08
2023-11-30T22:38:51.738Z,39.58
2023-11-30T22:41:18.434Z,36.13
2023-11-30T22:43:45.205Z,33.50
2023-11-30T22:46:19.233Z,30.70
2023-11-30T22:48:47.392Z,36.15
2023-11-30T22:51:14.352Z,37.35
2023-11-30T22:53:43.669Z,31.75
2023-11-30T22:56:28.576Z,42.13
2023-11-30T22:58:55.390Z,30.58
2023-11-30T23:01:22.842Z,34.30
2023-11-30T23:03:50.087Z,43.70
2023-11-30T23:06:17.475Z,30.48
2023-11-30T23:08:44.347Z,33.20
2023-11-30T23:11:11.557Z,33.35
2023-11-30T23:13:38.725Z,30.45
2023-11-30T23:16:06.256Z,32.55
2023-11-30T23:18:33.178Z,26.75
2023-11-30T23:21:00.421Z,28.33
2023-11-30T23:23:27.285Z,31.13
2023-11-30T23:25:54.890Z,29.55
2023-11-30T23:28:23.812Z,28.95
2023-11-30T23:30:50.685Z,33.13
2023-11-30T23:33:17.692Z,33.30
2023-11-30T23:35:44.681Z,32.72
2023-11-30T23:38:11.429Z,30.15
2023-11-30T23:40:38.194Z,36.92
2023-11-30T23:43:04.963Z,39.30
2023-11-30T23:45:31.855Z,32.33
2023-11-30T23:47:58.774Z,28.85
2023-11-30T23:50:25.597Z,28.92
2023-11-30T23:52:52.385Z,31.48
2023-11-30T23:55:19.129Z,36.13
2023-11-30T23:57:45.907Z,30.52
